Time;durP1;ratioP1;P1;durP2;ratioP2;P2;SDS_P1;SDS_P2;PMS_P1;PMS_P2;Temp;Humidity;BMP_temperature;BMP_pressure;BME280_temperature;BME280_humidity;BME280_pressure;Samples;Min_cycle;Max_cycle;Signal;HPM_P1;HPM_P2
2023/05/05 00:01:48;;;;;;;2.33;1.10;;;;;;;11.83;100.00;98519.94;15285149;19;20014;-48
2023/05/05 00:07:13;;;;;;;3.83;1.42;;;;;;;11.82;100.00;98518.25;15283825;19;20007;-47
2023/05/05 00:12:38;;;;;;;2.95;1.20;;;;;;;11.80;100.00;98512.19;15291810;19;20014;-49
2023/05/05 00:18:05;;;;;;;2.63;1.30;;;;;;;11.75;100.00;98506.44;15294006;19;20027;-46
2023/05/05 00:23:30;;;;;;;2.65;1.40;;;;;;;11.70;100.00;98509.66;15285791;19;20711;-48
2023/05/05 00:28:56;;;;;;;3.65;1.10;;;;;;;11.66;100.00;98506.44;15283107;19;20044;-46
2023/05/05 00:34:23;;;;;;;2.28;1.20;;;;;;;11.66;100.00;98498.34;15278288;19;20018;-47
2023/05/05 00:39:48;;;;;;;2.58;1.20;;;;;;;11.68;100.00;98496.31;15285473;19;20031;-47
2023/05/05 00:45:14;;;;;;;2.90;1.30;;;;;;;11.68;100.00;98496.31;15285071;19;20022;-46
2023/05/05 00:50:42;;;;;;;1.90;1.00;;;;;;;11.67;100.00;98493.78;15281752;19;20018;-46
2023/05/05 00:56:08;;;;;;;2.63;1.30;;;;;;;11.65;100.00;98495.78;15282263;19;20010;-46
2023/05/05 01:01:34;;;;;;;2.38;1.30;;;;;;;11.62;100.00;98496.16;15284313;19;20011;-46
2023/05/05 01:07:09;;;;;;;2.55;1.30;;;;;;;11.54;100.00;98494.28;15279982;19;20010;-47
2023/05/05 01:12:44;;;;;;;2.42;1.17;;;;;;;11.59;100.00;98491.06;15287946;19;20018;-50
2023/05/05 01:18:16;;;;;;;3.47;1.30;;;;;;;11.61;100.00;98494.47;15288386;19;20010;-46
2023/05/05 01:24:09;;;;;;;2.05;1.20;;;;;;;11.60;100.00;98488.19;15285577;19;20106;-53
2023/05/05 01:30:07;;;;;;;3.90;1.35;;;;;;;11.54;100.00;98480.78;15278482;19;20463;-50
2023/05/05 01:35:38;;;;;;;2.15;1.23;;;;;;;11.47;100.00;98480.59;15283859;19;20457;-50
2023/05/05 01:41:06;;;;;;;3.38;1.40;;;;;;;11.38;100.00;98481.59;15276586;19;20786;-51
2023/05/05 01:46:38;;;;;;;3.30;1.20;;;;;;;11.29;100.00;98477.19;15281324;19;20344;-51
2023/05/05 01:52:08;;;;;;;5.68;1.30;;;;;;;11.25;100.00;98479.34;15279989;19;20018;-54
2023/05/05 01:57:34;;;;;;;3.63;1.20;;;;;;;11.25;100.00;98490.16;15278789;19;20006;-54
2023/05/05 02:03:01;;;;;;;3.08;1.33;;;;;;;11.23;100.00;98476.84;15280500;19;20018;-52
2023/05/05 02:08:29;;;;;;;1.92;1.10;;;;;;;11.22;100.00;98474.31;15278301;19;20594;-53
2023/05/05 02:13:56;;;;;;;1.75;1.20;;;;;;;11.19;100.00;98477.31;15276476;19;20014;-51
2023/05/05 02:19:22;;;;;;;1.95;1.17;;;;;;;11.16;100.00;98475.81;15306460;19;20043;-51
2023/05/05 02:24:50;;;;;;;2.92;1.30;;;;;;;11.10;100.00;98469.22;15279874;19;20062;-49
2023/05/05 02:30:18;;;;;;;4.10;1.30;;;;;;;11.07;100.00;98464.16;15277695;19;20031;-50
2023/05/05 02:35:44;;;;;;;1.90;1.10;;;;;;;11.02;100.00;98463.78;15276259;19;20038;-49
2023/05/05 02:41:15;;;;;;;2.30;1.20;;;;;;;10.96;100.00;98467.16;15276794;19;20015;-51
2023/05/05 02:46:44;;;;;;;2.63;1.25;;;;;;;10.93;100.00;98462.94;15273644;19;20018;-50
2023/05/05 02:52:09;;;;;;;2.60;1.23;;;;;;;10.96;100.00;98467.16;15275824;19;20456;-53
2023/05/05 02:57:40;;;;;;;1.90;1.08;;;;;;;10.95;100.00;98454.66;15273023;19;20014;-55
2023/05/05 03:03:16;;;;;;;;;;;;;;;10.96;100.00;98456.34;15272127;19;20593;-50
2023/05/05 03:08:46;;;;;;;4.95;1.50;;;;;;;10.97;100.00;98458.06;15263488;19;20707;-51
2023/05/05 03:14:19;;;;;;;2.30;1.17;;;;;;;10.99;100.00;98453.34;15275683;19;20078;-55
2023/05/05 03:19:46;;;;;;;3.92;1.27;;;;;;;10.94;100.00;98458.38;15287929;19;20018;-54
2023/05/05 03:25:11;;;;;;;3.22;1.30;;;;;;;10.92;100.00;98452.28;15290865;19;20056;-53
2023/05/05 03:30:39;;;;;;;2.67;1.30;;;;;;;10.86;100.00;98447.56;15286273;19;20019;-51
2023/05/05 03:36:05;;;;;;;4.60;1.50;;;;;;;10.84;100.00;98442.31;15290083;19;20058;-53
2023/05/05 03:41:30;;;;;;;3.25;1.30;;;;;;;10.75;100.00;98446.00;15288519;19;20026;-52
2023/05/05 03:46:58;;;;;;;2.00;1.20;;;;;;;10.69;100.00;98447.50;15284470;19;20056;-49
2023/05/05 03:52:24;;;;;;;2.60;1.23;;;;;;;10.63;100.00;98445.44;15287174;19;20466;-51
2023/05/05 03:57:48;;;;;;;2.47;1.10;;;;;;;10.55;100.00;98448.09;15285346;19;20021;-52
2023/05/05 04:03:15;;;;;;;2.92;1.30;;;;;;;10.47;100.00;98441.66;15289245;19;20085;-50
2023/05/05 04:08:40;;;;;;;2.50;1.42;;;;;;;10.40;100.00;98447.84;15282535;19;20094;-51
2023/05/05 04:14:05;;;;;;;2.55;1.30;;;;;;;10.32;100.00;98445.91;15283910;19;20680;-51
2023/05/05 04:19:32;;;;;;;2.25;1.17;;;;;;;10.30;100.00;98443.38;15284986;19;20041;-49
2023/05/05 04:24:57;;;;;;;1.55;1.30;;;;;;;10.25;100.00;98444.88;15287773;19;20015;-51
2023/05/05 04:30:22;;;;;;;3.15;1.30;;;;;;;10.18;100.00;98461.63;15281824;19;20018;-55
2023/05/05 04:35:50;;;;;;;4.38;1.50;;;;;;;10.16;100.00;98465.50;15282586;19;20439;-56
2023/05/05 04:41:15;;;;;;;1.90;1.30;;;;;;;10.20;100.00;98460.63;15280824;19;20024;-55
2023/05/05 04:46:46;;;;;;;2.45;1.30;;;;;;;10.22;100.00;98450.56;15279990;19;20031;-56
2023/05/05 04:52:15;;;;;;;4.22;1.30;;;;;;;10.29;100.00;98454.31;15280955;19;20021;-55
2023/05/05 04:57:40;;;;;;;2.15;1.30;;;;;;;10.41;100.00;98447.66;15282454;19;20017;-50
2023/05/05 05:03:06;;;;;;;1.58;1.13;;;;;;;10.54;100.00;98449.94;15281000;19;20090;-55
2023/05/05 05:08:34;;;;;;;2.20;1.20;;;;;;;10.67;100.00;98452.19;15281999;19;20015;-53
2023/05/05 05:13:59;;;;;;;2.38;1.33;;;;;;;10.90;100.00;98454.31;15283933;19;20050;-50
2023/05/05 05:19:23;;;;;;;5.50;1.30;;;;;;;11.12;100.00;98454.72;15281172;19;20011;-51
2023/05/05 05:24:51;;;;;;;3.58;1.08;;;;;;;11.29;100.00;98464.53;15279304;19;20074;-49
2023/05/05 05:30:17;;;;;;;1.85;1.33;;;;;;;11.38;100.00;98463.53;15272796;19;20085;-49
2023/05/05 05:35:42;;;;;;;1.65;1.30;;;;;;;11.50;100.00;98466.78;15281865;19;20015;-51
2023/05/05 05:41:14;;;;;;;3.10;1.40;;;;;;;11.59;100.00;98448.72;15279635;19;20021;-49
2023/05/05 05:46:39;;;;;;;4.00;1.30;;;;;;;11.74;100.00;98453.47;15278799;19;20463;-47
2023/05/05 05:52:04;;;;;;;3.22;1.40;;;;;;;11.90;100.00;98466.97;15273342;19;20031;-49
2023/05/05 05:57:34;;;;;;;2.20;1.30;;;;;;;12.05;100.00;98452.84;15274237;19;20019;-54
2023/05/05 06:03:00;;;;;;;2.97;1.30;;;;;;;12.11;100.00;98457.56;15282724;19;20085;-53
2023/05/05 06:08:26;;;;;;;2.78;1.20;;;;;;;12.27;100.00;98459.38;15279582;19;20018;-56
2023/05/05 06:13:55;;;;;;;2.15;1.20;;;;;;;12.39;100.00;98462.59;15279628;19;20013;-52
2023/05/05 06:19:21;;;;;;;4.20;1.20;;;;;;;12.56;100.00;98463.38;15280949;19;20006;-50
2023/05/05 06:24:45;;;;;;;1.95;1.30;;;;;;;12.68;100.00;98458.44;15280639;19;20023;-50
2023/05/05 06:30:15;;;;;;;2.83;1.13;;;;;;;12.92;100.00;98463.75;15273857;19;20023;-51
2023/05/05 06:35:40;;;;;;;4.13;1.40;;;;;;;13.08;100.00;98454.72;15280376;19;20418;-48
2023/05/05 06:41:05;;;;;;;3.05;1.25;;;;;;;13.19;100.00;98456.19;15279631;19;20014;-49
2023/05/05 06:46:42;;;;;;;1.85;1.13;;;;;;;13.39;100.00;98450.31;15277020;19;20038;-48
2023/05/05 06:52:07;;;;;;;2.65;1.20;;;;;;;13.63;100.00;98451.22;15283449;19;20412;-51
2023/05/05 06:57:32;;;;;;;3.13;1.25;;;;;;;13.92;100.00;98455.06;15287849;19;20018;-51
2023/05/05 07:03:01;;;;;;;2.35;1.30;;;;;;;14.01;100.00;98448.56;15287386;19;20337;-49
2023/05/05 07:08:25;;;;;;;2.25;1.42;;;;;;;14.06;100.00;98445.28;15288794;19;20038;-52
2023/05/05 07:13:50;;;;;;;4.95;1.30;;;;;;;14.20;100.00;98451.75;15289262;19;20015;-53
2023/05/05 07:19:17;;;;;;;2.28;1.27;;;;;;;14.37;100.00;98453.28;15291175;19;20014;-55
2023/05/05 07:24:42;;;;;;;2.45;1.02;;;;;;;14.58;100.00;98460.66;15290673;19;20479;-51
2023/05/05 07:30:07;;;;;;;2.58;1.08;;;;;;;14.84;100.00;98445.84;15288240;19;20010;-52
2023/05/05 07:35:39;;;;;;;1.83;1.08;;;;;;;15.12;100.00;98441.59;15285770;19;20015;-52
2023/05/05 07:41:03;;;;;;;2.00;1.10;;;;;;;15.41;100.00;98452.38;15290803;19;20085;-53
2023/05/05 07:46:28;;;;;;;3.30;0.98;;;;;;;15.70;100.00;98455.19;15289017;19;20022;-47
2023/05/05 07:51:55;;;;;;;3.50;1.00;;;;;;;15.93;100.00;98446.88;15285756;19;20025;-51
2023/05/05 07:57:20;;;;;;;1.63;0.90;;;;;;;16.26;100.00;98440.88;15285507;19;20022;-47
2023/05/05 08:02:46;;;;;;;4.93;1.10;;;;;;;16.42;99.88;98441.59;15288493;19;20051;-57
2023/05/05 08:08:15;;;;;;;2.22;0.98;;;;;;;16.74;80.79;98450.19;15279667;19;20101;-51
2023/05/05 08:13:41;;;;;;;1.75;1.08;;;;;;;16.98;83.51;98443.41;15289209;19;20007;-48
2023/05/05 08:19:11;;;;;;;2.85;0.93;;;;;;;17.19;74.75;98450.63;15288839;19;20007;-51
2023/05/05 08:24:49;;;;;;;1.55;1.10;;;;;;;17.39;71.48;98444.41;15285982;19;20020;-50
2023/05/05 08:30:16;;;;;;;4.20;1.15;;;;;;;17.61;67.44;98436.06;15262695;19;20006;-52
2023/05/05 08:35:40;;;;;;;2.22;0.93;;;;;;;17.78;63.92;98442.81;15286422;19;20023;-49
2023/05/05 08:41:11;;;;;;;1.42;0.90;;;;;;;18.01;67.92;98433.44;15282223;19;20015;-49
2023/05/05 08:46:35;;;;;;;2.97;0.80;;;;;;;18.26;72.32;98430.06;15283130;19;20086;-50
2023/05/05 08:52:03;;;;;;;4.80;0.90;;;;;;;18.53;70.16;98427.28;15282265;19;20018;-51
2023/05/05 08:57:49;;;;;;;2.35;0.98;;;;;;;18.76;65.18;98419.47;15283212;19;20014;-52
2023/05/05 09:03:14;;;;;;;2.05;1.10;;;;;;;18.99;64.84;98418.19;15286760;19;20011;-52
2023/05/05 09:08:44;;;;;;;2.42;1.20;;;;;;;19.27;64.38;98411.53;15283678;19;20020;-52
2023/05/05 09:14:14;;;;;;;2.83;1.10;;;;;;;19.56;60.82;98403.81;15278062;19;21065;-49
2023/05/05 09:19:39;;;;;;;3.17;0.95;;;;;;;19.84;63.06;98403.41;15282885;19;20030;-52
2023/05/05 09:25:07;;;;;;;1.40;1.00;;;;;;;20.00;56.28;98402.03;15285288;19;20014;-51
2023/05/05 09:30:34;;;;;;;2.95;1.05;;;;;;;20.27;58.50;98401.81;15280371;19;20015;-52
2023/05/05 09:36:00;;;;;;;2.80;0.93;;;;;;;20.59;55.31;98395.38;15281895;19;20039;-52
2023/05/05 09:41:45;;;;;;;1.23;0.90;;;;;;;20.89;53.33;98392.75;15283258;19;20032;-52
2023/05/05 09:47:21;;;;;;;3.20;1.00;;;;;;;21.14;53.75;98390.97;15280162;19;20541;-53
2023/05/05 09:52:56;;;;;;;0.88;0.77;;;;;;;21.35;53.72;98384.97;15279677;19;20024;-54
2023/05/05 09:58:26;;;;;;;0.98;0.80;;;;;;;21.67;54.19;98383.94;15282687;19;20011;-54
2023/05/05 10:03:56;;;;;;;1.83;0.90;;;;;;;21.90;50.26;98388.59;15281800;19;20024;-55
2023/05/05 10:09:22;;;;;;;1.98;0.80;;;;;;;21.96;50.34;98397.81;15272079;19;20026;-56
2023/05/05 10:14:47;;;;;;;1.92;0.90;;;;;;;22.14;47.08;98394.97;15273580;19;20034;-53
2023/05/05 10:20:18;;;;;;;1.55;0.90;;;;;;;22.35;48.70;98384.47;15281709;19;20778;-57
2023/05/05 10:25:48;;;;;;;2.25;1.10;;;;;;;22.43;46.71;98369.59;15278334;19;20355;-56
2023/05/05 10:31:18;;;;;;;4.90;1.10;;;;;;;22.53;46.86;98366.22;15276344;19;20512;-55
2023/05/05 10:36:50;;;;;;;2.38;1.00;;;;;;;22.66;46.26;98351.41;15277613;19;20011;-59
2023/05/05 10:42:22;;;;;;;3.67;1.00;;;;;;;22.70;47.69;98336.94;15280265;19;20037;-58
2023/05/05 10:47:49;;;;;;;1.13;0.95;;;;;;;22.78;44.52;98338.50;15273086;19;20376;-57
2023/05/05 10:53:25;;;;;;;1.75;0.85;;;;;;;22.84;42.87;98332.00;15277191;19;20027;-55
2023/05/05 10:58:51;;;;;;;1.70;0.93;;;;;;;23.01;43.32;98334.81;15278180;19;20778;-51
2023/05/05 11:04:31;;;;;;;1.65;0.88;;;;;;;23.21;46.64;98328.09;15278049;19;20534;-52
2023/05/05 11:10:01;;;;;;;1.25;0.90;;;;;;;23.42;46.71;98322.97;15272553;19;20025;-49
2023/05/05 11:15:41;;;;;;;3.33;1.02;;;;;;;23.44;45.80;98323.56;15276525;19;20367;-54
2023/05/05 11:21:14;;;;;;;1.98;0.80;;;;;;;23.57;45.57;98316.88;15272089;19;20016;-51
2023/05/05 11:27:00;;;;;;;2.33;0.75;;;;;;;23.77;46.42;98311.72;15273666;19;20022;-55
2023/05/05 11:32:32;;;;;;;1.95;1.08;;;;;;;24.05;49.94;98306.41;15272384;19;20018;-58
2023/05/05 11:38:11;;;;;;;1.77;0.90;;;;;;;24.23;47.90;98303.38;15276459;19;20037;-52
2023/05/05 11:43:41;;;;;;;1.15;0.85;;;;;;;24.47;46.91;98297.63;15289674;19;20022;-56
2023/05/05 11:49:12;;;;;;;1.65;0.70;;;;;;;24.66;46.93;98294.53;15285143;19;20036;-56
2023/05/05 11:54:39;;;;;;;;;;;;;;;24.87;47.20;98298.41;15283498;19;20022;-48
2023/05/05 12:00:08;;;;;;;1.05;0.88;;;;;;;25.05;48.33;98295.28;15287409;19;19921;-50
2023/05/05 12:05:33;;;;;;;2.10;1.00;;;;;;;25.19;45.79;98292.97;15283893;19;20025;-53
2023/05/05 12:10:57;;;;;;;1.23;0.80;;;;;;;25.29;46.81;98283.94;15283407;19;20018;-57
2023/05/05 12:16:25;;;;;;;1.67;0.82;;;;;;;25.18;42.50;98291.31;15281713;19;20018;-54
2023/05/05 12:21:54;;;;;;;2.22;0.90;;;;;;;24.85;45.84;98282.16;15288257;19;20010;-56
2023/05/05 12:27:19;;;;;;;1.23;0.85;;;;;;;25.07;45.28;98281.28;15280960;19;20626;-53
2023/05/05 12:32:47;;;;;;;4.57;0.77;;;;;;;25.13;45.81;98279.41;15281317;19;20028;-57
2023/05/05 12:38:13;;;;;;;5.30;0.90;;;;;;;25.24;46.91;98272.91;15286234;19;20011;-52
2023/05/05 12:43:39;;;;;;;1.83;0.90;;;;;;;25.38;44.37;98263.09;15287013;19;20011;-53
2023/05/05 12:49:15;;;;;;;3.45;0.90;;;;;;;25.32;43.53;98249.53;15283265;19;20402;-52
2023/05/05 12:54:53;;;;;;;3.10;0.90;;;;;;;25.45;43.62;98243.63;15285844;19;20018;-50
2023/05/05 13:00:23;;;;;;;3.10;0.80;;;;;;;25.42;45.88;98237.75;15282014;19;20002;-54
2023/05/05 13:05:50;;;;;;;2.47;0.70;;;;;;;25.65;47.17;98239.34;15283275;19;20372;-53
2023/05/05 13:11:15;;;;;;;2.47;0.90;;;;;;;25.62;47.79;98232.44;15282768;19;20020;-55
2023/05/05 13:16:39;;;;;;;2.90;1.00;;;;;;;25.37;45.37;98233.00;15281878;19;20025;-57
2023/05/05 13:22:07;;;;;;;5.47;0.80;;;;;;;25.36;47.19;98226.69;15260924;19;20022;-50
2023/05/05 13:27:31;;;;;;;1.60;0.90;;;;;;;25.26;46.49;98220.25;15284169;19;20021;-54
2023/05/05 13:32:56;;;;;;;1.92;0.88;;;;;;;25.29;47.46;98215.03;15278890;19;20007;-61
2023/05/05 13:38:23;;;;;;;1.92;0.80;;;;;;;25.26;48.83;98214.72;15285155;19;20040;-53
2023/05/05 13:43:55;;;;;;;3.30;0.90;;;;;;;25.07;48.42;98206.84;15282779;19;20017;-54
2023/05/05 13:49:27;;;;;;;1.58;0.70;;;;;;;24.95;49.17;98190.47;15282668;19;20042;-55
2023/05/05 13:54:55;;;;;;;1.75;0.70;;;;;;;24.82;48.99;98180.72;15275376;19;20032;-52
2023/05/05 14:00:22;;;;;;;2.45;0.70;;;;;;;24.54;49.87;98177.09;15274064;19;20082;-54
2023/05/05 14:05:46;;;;;;;1.02;0.80;;;;;;;24.31;51.57;98167.19;15279889;19;20018;-56
2023/05/05 14:11:15;;;;;;;3.08;0.90;;;;;;;24.04;51.81;98161.66;15278082;19;20126;-55
2023/05/05 14:16:40;;;;;;;3.03;0.80;;;;;;;23.78;52.20;98153.03;15280342;19;20025;-52
2023/05/05 14:22:07;;;;;;;2.85;0.70;;;;;;;23.60;52.90;98146.72;15280937;19;20024;-56
2023/05/05 14:27:35;;;;;;;2.72;1.20;;;;;;;23.33;55.53;98141.09;15279561;19;20003;-52
2023/05/05 14:33:00;;;;;;;1.80;1.15;;;;;;;23.11;56.89;98135.53;15268624;19;20014;-55
2023/05/05 14:38:24;;;;;;;11.85;1.05;;;;;;;22.80;56.22;98145.97;15280008;19;20087;-49
2023/05/05 14:43:52;;;;;;;3.20;0.98;;;;;;;22.51;56.66;98155.09;15275904;19;20067;-54
2023/05/05 14:49:23;;;;;;;3.28;1.10;;;;;;;22.39;57.83;98154.28;15274737;19;20051;-51
2023/05/05 14:54:48;;;;;;;2.72;0.77;;;;;;;22.21;61.20;98153.41;15274827;19;20015;-53
2023/05/05 15:00:17;;;;;;;2.22;0.80;;;;;;;22.29;66.95;98163.97;15276642;19;20328;-51
2023/05/05 15:05:41;;;;;;;1.08;0.70;;;;;;;22.50;64.04;98156.16;15270511;19;20014;-50
2023/05/05 15:11:06;;;;;;;8.00;0.90;;;;;;;22.56;64.45;98148.84;15277387;19;20018;-50
2023/05/05 15:16:33;;;;;;;2.65;0.80;;;;;;;22.45;64.36;98140.44;15290573;19;20045;-48
2023/05/05 15:21:59;;;;;;;1.92;0.82;;;;;;;22.37;64.06;98126.22;15286134;19;20030;-48
2023/05/05 15:27:25;;;;;;;4.60;0.95;;;;;;;22.45;65.15;98121.22;15290740;19;20364;-54
2023/05/05 15:32:52;;;;;;;2.47;0.80;;;;;;;22.38;66.90;98120.53;15287001;19;20018;-52
2023/05/05 15:38:16;;;;;;;1.42;0.90;;;;;;;22.26;76.92;98117.00;15283136;19;20033;-52
2023/05/05 15:43:42;;;;;;;1.60;0.98;;;;;;;22.20;79.72;98113.31;15287904;19;20528;-55
2023/05/05 15:49:09;;;;;;;2.30;0.85;;;;;;;22.00;79.55;98100.03;15283543;19;20491;-53
2023/05/05 15:54:34;;;;;;;1.25;0.80;;;;;;;21.93;82.72;98108.38;15285169;19;20686;-56
2023/05/05 15:59:58;;;;;;;1.73;0.80;;;;;;;21.83;82.61;98114.50;15287017;19;20379;-53
2023/05/05 16:05:26;;;;;;;2.10;0.90;;;;;;;21.84;82.43;98113.41;15283826;19;20358;-54
2023/05/05 16:10:51;;;;;;;1.52;0.85;;;;;;;21.80;82.51;98116.88;15280955;19;20011;-57
2023/05/05 16:16:16;;;;;;;4.13;1.10;;;;;;;21.57;93.32;98104.03;15287140;19;20025;-51
2023/05/05 16:21:43;;;;;;;3.00;0.90;;;;;;;21.38;93.30;98093.19;15284745;19;20052;-54
2023/05/05 16:27:08;;;;;;;2.28;0.80;;;;;;;21.20;94.59;98095.03;15278215;19;20017;-53
2023/05/05 16:32:34;;;;;;;2.50;0.95;;;;;;;21.00;100.00;98089.03;14773998;19;10001174;-53
2023/05/05 16:38:02;;;;;;;2.00;1.10;;;;;;;20.60;100.00;98091.34;15281995;19;20357;-51
2023/05/05 16:43:27;;;;;;;1.70;0.80;;;;;;;20.31;100.00;98093.88;15284547;19;20011;-51
2023/05/05 16:48:59;;;;;;;2.05;1.15;;;;;;;20.05;100.00;98097.00;15279245;19;20070;-53
2023/05/05 16:54:26;;;;;;;3.97;1.17;;;;;;;19.81;100.00;98089.47;15280926;19;20399;-52
2023/05/05 16:59:52;;;;;;;3.33;0.90;;;;;;;19.80;100.00;98082.34;15281374;19;20018;-50
2023/05/05 17:05:20;;;;;;;2.03;1.00;;;;;;;19.70;100.00;98077.41;15280009;19;20879;-51
2023/05/05 17:10:47;;;;;;;3.72;1.00;;;;;;;19.58;100.00;98071.03;15280033;19;20227;-49
2023/05/05 17:16:12;;;;;;;2.38;1.13;;;;;;;19.40;100.00;98060.97;15273345;19;20022;-54
2023/05/05 17:21:37;;;;;;;2.00;1.10;;;;;;;19.27;100.00;98056.47;15277081;19;20024;-53
2023/05/05 17:27:04;;;;;;;4.78;1.10;;;;;;;19.12;100.00;98065.03;15281101;19;20007;-50
2023/05/05 17:32:32;;;;;;;2.28;1.25;;;;;;;19.04;100.00;98065.34;15276294;19;20025;-51
2023/05/05 17:37:56;;;;;;;2.38;1.20;;;;;;;18.87;100.00;98065.06;15271652;19;20368;-50
2023/05/05 17:43:24;;;;;;;3.17;1.40;;;;;;;18.88;100.00;98074.88;15277433;19;20583;-48
2023/05/05 17:48:56;;;;;;;2.53;1.23;;;;;;;18.81;100.00;98064.06;15270498;19;20363;-52
2023/05/05 17:54:22;;;;;;;5.63;1.40;;;;;;;18.69;100.00;98071.28;15272569;19;20030;-52
2023/05/05 17:59:50;;;;;;;2.40;1.23;;;;;;;18.57;100.00;98074.75;15275537;19;20367;-49
2023/05/05 18:05:23;;;;;;;2.25;1.17;;;;;;;18.38;100.00;98071.09;15276715;19;20022;-55
2023/05/05 18:10:48;;;;;;;1.25;1.00;;;;;;;18.32;100.00;98075.53;15279215;19;20018;-50
2023/05/05 18:16:17;;;;;;;3.05;1.20;;;;;;;18.34;100.00;98072.59;15284625;19;21048;-54
2023/05/05 18:21:43;;;;;;;4.10;0.93;;;;;;;18.31;100.00;98081.19;15268856;19;20009;-49
2023/05/05 18:27:08;;;;;;;1.02;0.80;;;;;;;18.38;100.00;98095.66;15275574;19;20024;-50
2023/05/05 18:32:36;;;;;;;0.85;0.65;;;;;;;18.32;100.00;98111.00;15278152;19;20018;-49
2023/05/05 18:38:02;;;;;;;4.25;1.30;;;;;;;17.84;100.00;98131.31;15275693;19;20014;-52
2023/05/05 18:43:26;;;;;;;3.10;1.10;;;;;;;17.54;100.00;98134.56;15276560;19;20010;-50
2023/05/05 18:48:53;;;;;;;2.10;1.10;;;;;;;17.70;100.00;98154.19;15288113;19;20767;-49
2023/05/05 18:54:19;;;;;;;1.67;1.20;;;;;;;17.56;100.00;98157.00;15286518;19;20011;-50
2023/05/05 18:59:44;;;;;;;4.32;1.08;;;;;;;17.39;100.00;98172.94;15293632;19;20666;-52
2023/05/05 19:05:13;;;;;;;1.63;1.00;;;;;;;17.24;100.00;98218.59;15286964;19;20483;-51
2023/05/05 19:10:38;;;;;;;1.98;0.90;;;;;;;16.78;100.00;98214.75;15285740;19;20022;-52
2023/05/05 19:16:03;;;;;;;1.98;0.98;;;;;;;16.46;100.00;98184.56;15282721;19;20422;-49
2023/05/05 19:21:31;;;;;;;1.70;0.88;;;;;;;16.53;100.00;98198.19;15285792;19;20051;-50
2023/05/05 19:26:55;;;;;;;2.50;0.80;;;;;;;16.26;100.00;98196.22;15281365;19;20376;-52
2023/05/05 19:32:20;;;;;;;3.33;0.80;;;;;;;16.23;100.00;98187.66;15284541;19;20486;-50
2023/05/05 19:37:49;;;;;;;0.85;0.52;;;;;;;16.17;100.00;98191.97;15281445;19;20046;-47
2023/05/05 19:43:14;;;;;;;1.05;0.60;;;;;;;15.99;100.00;98206.16;15286152;19;20039;-53
2023/05/05 19:48:38;;;;;;;1.35;0.90;;;;;;;15.41;100.00;98272.38;15285107;19;20010;-54
2023/05/05 19:54:07;;;;;;;1.23;1.00;;;;;;;15.12;100.00;98300.50;15281431;19;20015;-51
2023/05/05 19:59:32;;;;;;;1.98;1.50;;;;;;;14.83;100.00;98321.28;15276353;19;20018;-49
2023/05/05 20:04:59;;;;;;;2.83;2.10;;;;;;;14.58;100.00;98348.69;15280070;19;20018;-49
2023/05/05 20:10:27;;;;;;;3.83;2.30;;;;;;;14.33;100.00;98351.69;15280439;19;20042;-49
2023/05/05 20:15:54;;;;;;;3.47;2.97;;;;;;;14.26;100.00;98348.06;15282502;19;20014;-51
2023/05/05 20:21:20;;;;;;;4.40;3.08;;;;;;;14.00;100.00;98373.72;15288357;19;20082;-50
2023/05/05 20:26:47;;;;;;;4.00;3.60;;;;;;;13.83;100.00;98392.00;15286058;19;20021;-50
2023/05/05 20:32:16;;;;;;;4.65;4.15;;;;;;;13.64;100.00;98409.59;15284189;19;20090;-54
2023/05/05 20:37:43;;;;;;;6.25;4.50;;;;;;;13.52;100.00;98428.97;15282001;19;20018;-50
2023/05/05 20:43:11;;;;;;;6.63;4.97;;;;;;;13.36;100.00;98445.25;15287677;19;20018;-50
2023/05/05 20:48:43;;;;;;;6.75;5.15;;;;;;;13.26;100.00;98451.75;15282029;19;21339;-50
2023/05/05 20:54:09;;;;;;;9.00;5.15;;;;;;;13.36;100.00;98445.25;15280997;19;20015;-51
2023/05/05 20:59:37;;;;;;;5.63;5.00;;;;;;;13.36;100.00;98443.41;15284629;19;20089;-48
2023/05/05 21:05:04;;;;;;;8.77;4.40;;;;;;;13.49;100.00;98423.91;15283505;19;20006;-46
2023/05/05 21:10:31;;;;;;;4.95;4.10;;;;;;;13.51;100.00;98411.03;15281817;19;20491;-45
2023/05/05 21:15:59;;;;;;;7.68;4.43;;;;;;;13.55;100.00;98401.53;15281281;19;20136;-46
2023/05/05 21:21:26;;;;;;;5.38;4.70;;;;;;;13.50;100.00;98411.22;15284569;19;20034;-47
2023/05/05 21:26:51;;;;;;;5.95;5.00;;;;;;;13.42;100.00;98414.84;15282131;19;20582;-47
2023/05/05 21:32:19;;;;;;;5.60;4.53;;;;;;;13.38;100.00;98413.47;15274663;19;20341;-51
2023/05/05 21:37:46;;;;;;;5.93;5.20;;;;;;;13.35;100.00;98408.41;15276971;19;20023;-46
2023/05/05 21:43:12;;;;;;;5.45;4.88;;;;;;;13.36;100.00;98421.78;15283851;19;20026;-47
2023/05/05 21:48:40;;;;;;;5.55;4.95;;;;;;;13.38;100.00;98422.44;15279392;19;20349;-46
2023/05/05 21:54:05;;;;;;;6.15;5.10;;;;;;;13.34;100.00;98431.09;15278798;19;20292;-47
2023/05/05 21:59:31;;;;;;;5.05;4.50;;;;;;;13.36;100.00;98424.47;15277241;19;20022;-51
2023/05/05 22:04:59;;;;;;;5.38;4.70;;;;;;;13.40;100.00;98416.88;15271810;19;20494;-52
2023/05/05 22:10:26;;;;;;;6.95;4.75;;;;;;;13.40;100.00;98408.75;15278632;19;20031;-50
2023/05/05 22:15:51;;;;;;;6.63;4.78;;;;;;;13.39;100.00;98394.38;15276307;19;20589;-50
2023/05/05 22:21:18;;;;;;;6.35;5.35;;;;;;;13.37;100.00;98399.09;15276406;19;20033;-45
2023/05/05 22:26:43;;;;;;;7.47;5.50;;;;;;;13.36;100.00;98401.97;15277405;19;20034;-48
2023/05/05 22:32:08;;;;;;;5.13;4.63;;;;;;;13.38;100.00;98397.22;15279793;19;20014;-45
2023/05/05 22:37:35;;;;;;;5.30;4.60;;;;;;;13.40;100.00;98401.50;15271245;19;20030;-46
2023/05/05 22:43:01;;;;;;;5.65;4.28;;;;;;;13.43;100.00;98397.56;15278240;19;20010;-47
2023/05/05 22:48:32;;;;;;;5.00;4.22;;;;;;;13.44;100.00;98387.56;15277094;19;20018;-49
2023/05/05 22:53:59;;;;;;;5.18;4.35;;;;;;;13.45;100.00;98373.88;15277844;19;20011;-47
2023/05/05 22:59:24;;;;;;;5.40;4.68;;;;;;;13.43;100.00;98370.50;15278581;19;20101;-50
2023/05/05 23:04:49;;;;;;;5.53;4.30;;;;;;;13.45;100.00;98365.75;15273619;19;20010;-45
2023/05/05 23:10:18;;;;;;;6.28;5.13;;;;;;;13.44;100.00;98372.19;15273007;19;20018;-51
2023/05/05 23:15:43;;;;;;;6.00;5.20;;;;;;;13.45;100.00;98379.28;15276581;19;20025;-48
2023/05/05 23:21:07;;;;;;;5.18;4.43;;;;;;;13.46;100.00;98372.88;15280740;19;20025;-46
2023/05/05 23:26:34;;;;;;;5.68;5.10;;;;;;;13.45;100.00;98363.06;15279203;19;20037;-47
2023/05/05 23:32:00;;;;;;;4.78;4.28;;;;;;;13.42;100.00;98358.00;15280956;19;20788;-50
2023/05/05 23:37:25;;;;;;;5.63;4.88;;;;;;;13.38;100.00;98362.06;15286596;19;20021;-44
2023/05/05 23:42:52;;;;;;;6.88;4.80;;;;;;;13.40;100.00;98366.31;15288486;19;20021;-48
2023/05/05 23:48:23;;;;;;;6.70;4.40;;;;;;;13.40;100.00;98350.06;15289585;19;20018;-49
2023/05/05 23:53:48;;;;;;;5.47;4.97;;;;;;;13.41;100.00;98359.03;15287257;19;20653;-47
2023/05/05 23:59:15;;;;;;;5.55;4.95;;;;;;;13.38;100.00;98343.09;15290498;19;20073;-48
